sensor_id;sensor_type;location;lat;lon;timestamp;P1;durP1;ratioP1;P2;durP2;ratioP2
18647;SDS011;9453;50.294;18.644;2022-12-18T05:00:52;77.50;;;21.67;;
18647;SDS011;9453;50.294;18.644;2022-12-18T05:03:19;92.60;;;26.90;;
18647;SDS011;9453;50.294;18.644;2022-12-18T05:05:48;79.17;;;23.47;;
18647;SDS011;9453;50.294;18.644;2022-12-18T05:08:15;91.77;;;27.60;;
18647;SDS011;9453;50.294;18.644;2022-12-18T05:10:42;87.27;;;26.60;;
18647;SDS011;9453;50.294;18.644;2022-12-18T05:13:09;98.13;;;26.60;;
18647;SDS011;9453;50.294;18.644;2022-12-18T05:15:36;67.13;;;22.10;;
18647;SDS011;9453;50.294;18.644;2022-12-18T05:18:04;87.27;;;25.43;;
18647;SDS011;9453;50.294;18.644;2022-12-18T05:20:32;65.90;;;20.53;;
18647;SDS011;9453;50.294;18.644;2022-12-18T05:22:59;67.73;;;21.73;;
18647;SDS011;9453;50.294;18.644;2022-12-18T05:25:26;69.10;;;22.60;;
18647;SDS011;9453;50.294;18.644;2022-12-18T05:27:53;94.27;;;25.87;;
18647;SDS011;9453;50.294;18.644;2022-12-18T05:30:20;86.10;;;23.87;;
18647;SDS011;9453;50.294;18.644;2022-12-18T05:32:47;75.63;;;22.37;;
18647;SDS011;9453;50.294;18.644;2022-12-18T05:35:15;76.30;;;21.50;;
18647;SDS011;9453;50.294;18.644;2022-12-18T05:37:42;62.53;;;20.03;;
18647;SDS011;9453;50.294;18.644;2022-12-18T05:40:10;78.10;;;23.27;;
18647;SDS011;9453;50.294;18.644;2022-12-18T05:42:38;103.33;;;26.70;;
18647;SDS011;9453;50.294;18.644;2022-12-18T05:45:05;73.37;;;22.67;;
18647;SDS011;9453;50.294;18.644;2022-12-18T05:47:32;70.40;;;21.77;;
18647;SDS011;9453;50.294;18.644;2022-12-18T05:49:59;86.10;;;22.40;;
18647;SDS011;9453;50.294;18.644;2022-12-18T05:52:28;69.73;;;21.47;;
18647;SDS011;9453;50.294;18.644;2022-12-18T05:54:54;64.97;;;22.47;;
18647;SDS011;9453;50.294;18.644;2022-12-18T05:57:21;83.07;;;23.77;;
18647;SDS011;9453;50.294;18.644;2022-12-18T05:59:48;68.07;;;20.73;;
18647;SDS011;9453;50.294;18.644;2022-12-18T06:02:15;76.33;;;23.27;;
18647;SDS011;9453;50.294;18.644;2022-12-18T06:04:47;89.97;;;22.73;;
18647;SDS011;9453;50.294;18.644;2022-12-18T06:07:14;69.37;;;21.80;;
18647;SDS011;9453;50.294;18.644;2022-12-18T06:09:43;69.57;;;21.20;;
18647;SDS011;9453;50.294;18.644;2022-12-18T06:12:10;70.17;;;20.00;;
18647;SDS011;9453;50.294;18.644;2022-12-18T06:14:36;72.73;;;21.17;;
18647;SDS011;9453;50.294;18.644;2022-12-18T06:17:04;73.60;;;21.47;;
18647;SDS011;9453;50.294;18.644;2022-12-18T06:19:31;57.10;;;17.97;;
18647;SDS011;9453;50.294;18.644;2022-12-18T06:21:58;55.97;;;19.60;;
18647;SDS011;9453;50.294;18.644;2022-12-18T06:24:25;58.77;;;18.10;;
18647;SDS011;9453;50.294;18.644;2022-12-18T06:26:53;55.40;;;18.73;;
18647;SDS011;9453;50.294;18.644;2022-12-18T06:29:20;65.37;;;19.17;;
18647;SDS011;9453;50.294;18.644;2022-12-18T06:31:47;65.37;;;19.10;;
18647;SDS011;9453;50.294;18.644;2022-12-18T06:34:14;57.07;;;17.10;;
18647;SDS011;9453;50.294;18.644;2022-12-18T06:36:41;64.83;;;18.93;;
18647;SDS011;9453;50.294;18.644;2022-12-18T06:39:08;55.37;;;15.33;;
18647;SDS011;9453;50.294;18.644;2022-12-18T06:41:34;57.70;;;16.93;;
18647;SDS011;9453;50.294;18.644;2022-12-18T06:44:03;48.30;;;16.93;;
18647;SDS011;9453;50.294;18.644;2022-12-18T06:46:30;46.63;;;15.47;;
18647;SDS011;9453;50.294;18.644;2022-12-18T06:48:58;49.07;;;16.67;;
18647;SDS011;9453;50.294;18.644;2022-12-18T06:51:25;52.30;;;15.47;;
18647;SDS011;9453;50.294;18.644;2022-12-18T06:53:52;53.47;;;15.17;;
18647;SDS011;9453;50.294;18.644;2022-12-18T06:56:18;49.13;;;17.03;;
18647;SDS011;9453;50.294;18.644;2022-12-18T06:58:45;52.67;;;15.67;;
18647;SDS011;9453;50.294;18.644;2022-12-18T07:01:14;47.40;;;13.07;;
18647;SDS011;9453;50.294;18.644;2022-12-18T07:03:42;43.80;;;14.20;;
18647;SDS011;9453;50.294;18.644;2022-12-18T07:06:12;54.43;;;15.87;;
18647;SDS011;9453;50.294;18.644;2022-12-18T07:08:41;52.57;;;16.60;;
18647;SDS011;9453;50.294;18.644;2022-12-18T07:11:08;44.07;;;15.33;;
18647;SDS011;9453;50.294;18.644;2022-12-18T07:13:35;54.60;;;15.73;;
18647;SDS011;9453;50.294;18.644;2022-12-18T07:16:03;57.63;;;17.87;;
18647;SDS011;9453;50.294;18.644;2022-12-18T07:18:33;51.13;;;16.87;;
18647;SDS011;9453;50.294;18.644;2022-12-18T07:21:02;66.10;;;18.97;;
18647;SDS011;9453;50.294;18.644;2022-12-18T07:23:31;66.03;;;18.67;;
18647;SDS011;9453;50.294;18.644;2022-12-18T07:26:00;52.23;;;17.33;;
18647;SDS011;9453;50.294;18.644;2022-12-18T07:28:28;49.10;;;16.30;;
18647;SDS011;9453;50.294;18.644;2022-12-18T07:30:55;47.43;;;14.70;;
18647;SDS011;9453;50.294;18.644;2022-12-18T07:33:22;42.30;;;13.33;;
18647;SDS011;9453;50.294;18.644;2022-12-18T07:35:50;39.27;;;12.30;;
18647;SDS011;9453;50.294;18.644;2022-12-18T07:38:17;57.50;;;16.40;;
18647;SDS011;9453;50.294;18.644;2022-12-18T07:40:44;52.20;;;17.00;;
18647;SDS011;9453;50.294;18.644;2022-12-18T07:43:11;61.70;;;17.90;;
18647;SDS011;9453;50.294;18.644;2022-12-18T07:45:38;50.20;;;16.67;;
18647;SDS011;9453;50.294;18.644;2022-12-18T07:48:05;60.50;;;18.13;;
18647;SDS011;9453;50.294;18.644;2022-12-18T07:50:32;59.53;;;16.93;;
18647;SDS011;9453;50.294;18.644;2022-12-18T07:53:00;56.43;;;17.43;;
18647;SDS011;9453;50.294;18.644;2022-12-18T07:55:29;55.97;;;17.03;;
18647;SDS011;9453;50.294;18.644;2022-12-18T07:57:57;47.93;;;14.67;;
18647;SDS011;9453;50.294;18.644;2022-12-18T08:00:26;58.17;;;17.07;;
18647;SDS011;9453;50.294;18.644;2022-12-18T08:02:53;52.17;;;17.67;;
18647;SDS011;9453;50.294;18.644;2022-12-18T08:05:20;57.07;;;17.87;;
18647;SDS011;9453;50.294;18.644;2022-12-18T08:07:47;46.93;;;15.73;;
18647;SDS011;9453;50.294;18.644;2022-12-18T08:10:16;51.93;;;17.20;;
18647;SDS011;9453;50.294;18.644;2022-12-18T08:12:43;57.10;;;18.80;;
18647;SDS011;9453;50.294;18.644;2022-12-18T08:15:10;58.10;;;19.27;;
18647;SDS011;9453;50.294;18.644;2022-12-18T08:17:37;62.43;;;19.33;;
18647;SDS011;9453;50.294;18.644;2022-12-18T08:20:04;65.73;;;19.10;;
18647;SDS011;9453;50.294;18.644;2022-12-18T08:22:33;58.90;;;19.60;;
18647;SDS011;9453;50.294;18.644;2022-12-18T08:25:00;74.87;;;21.60;;
18647;SDS011;9453;50.294;18.644;2022-12-18T08:27:28;65.37;;;20.60;;
18647;SDS011;9453;50.294;18.644;2022-12-18T08:29:55;69.23;;;21.23;;
18647;SDS011;9453;50.294;18.644;2022-12-18T08:32:22;57.73;;;19.13;;
18647;SDS011;9453;50.294;18.644;2022-12-18T08:34:50;61.47;;;20.77;;
18647;SDS011;9453;50.294;18.644;2022-12-18T08:37:17;54.00;;;18.43;;
18647;SDS011;9453;50.294;18.644;2022-12-18T08:39:44;63.20;;;20.40;;
18647;SDS011;9453;50.294;18.644;2022-12-18T08:42:11;64.40;;;20.20;;
18647;SDS011;9453;50.294;18.644;2022-12-18T08:44:57;68.93;;;22.13;;
18647;SDS011;9453;50.294;18.644;2022-12-18T08:47:24;79.47;;;23.40;;
18647;SDS011;9453;50.294;18.644;2022-12-18T08:49:51;84.17;;;24.00;;
18647;SDS011;9453;50.294;18.644;2022-12-18T08:52:18;75.20;;;23.97;;
18647;SDS011;9453;50.294;18.644;2022-12-18T08:54:45;87.80;;;25.30;;
18647;SDS011;9453;50.294;18.644;2022-12-18T08:57:12;71.23;;;24.43;;
18647;SDS011;9453;50.294;18.644;2022-12-18T08:59:39;57.47;;;19.00;;
18647;SDS011;9453;50.294;18.644;2022-12-18T09:02:07;65.50;;;21.03;;
18647;SDS011;9453;50.294;18.644;2022-12-18T09:04:35;72.73;;;21.77;;
18647;SDS011;9453;50.294;18.644;2022-12-18T09:07:02;69.77;;;21.40;;
18647;SDS011;9453;50.294;18.644;2022-12-18T09:09:29;70.67;;;20.30;;
18647;SDS011;9453;50.294;18.644;2022-12-18T09:11:56;65.70;;;20.17;;
18647;SDS011;9453;50.294;18.644;2022-12-18T09:14:23;60.57;;;19.47;;
18647;SDS011;9453;50.294;18.644;2022-12-18T09:16:49;69.20;;;19.47;;
18647;SDS011;9453;50.294;18.644;2022-12-18T09:19:20;58.73;;;18.17;;
18647;SDS011;9453;50.294;18.644;2022-12-18T09:21:47;64.80;;;19.50;;
18647;SDS011;9453;50.294;18.644;2022-12-18T09:24:14;63.30;;;19.07;;
18647;SDS011;9453;50.294;18.644;2022-12-18T09:26:41;64.03;;;18.93;;
18647;SDS011;9453;50.294;18.644;2022-12-18T09:29:08;56.57;;;17.90;;
18647;SDS011;9453;50.294;18.644;2022-12-18T09:31:36;57.33;;;17.83;;
18647;SDS011;9453;50.294;18.644;2022-12-18T09:34:04;53.47;;;17.10;;
18647;SDS011;9453;50.294;18.644;2022-12-18T09:36:32;48.47;;;17.30;;
18647;SDS011;9453;50.294;18.644;2022-12-18T09:38:59;52.80;;;18.43;;
18647;SDS011;9453;50.294;18.644;2022-12-18T09:41:35;48.10;;;15.97;;
18647;SDS011;9453;50.294;18.644;2022-12-18T09:44:17;54.47;;;16.70;;
18647;SDS011;9453;50.294;18.644;2022-12-18T09:46:52;51.83;;;16.03;;
18647;SDS011;9453;50.294;18.644;2022-12-18T09:49:26;50.50;;;17.73;;
18647;SDS011;9453;50.294;18.644;2022-12-18T09:51:59;57.97;;;16.47;;
18647;SDS011;9453;50.294;18.644;2022-12-18T09:54:31;40.33;;;13.77;;
18647;SDS011;9453;50.294;18.644;2022-12-18T09:57:01;38.23;;;12.93;;
18647;SDS011;9453;50.294;18.644;2022-12-18T09:59:30;42.23;;;13.27;;
18647;SDS011;9453;50.294;18.644;2022-12-18T10:02:10;39.33;;;12.07;;
18647;SDS011;9453;50.294;18.644;2022-12-18T10:04:41;39.83;;;12.60;;
18647;SDS011;9453;50.294;18.644;2022-12-18T10:07:10;36.50;;;12.87;;
18647;SDS011;9453;50.294;18.644;2022-12-18T10:09:42;51.40;;;14.00;;
18647;SDS011;9453;50.294;18.644;2022-12-18T10:12:19;48.70;;;15.57;;
18647;SDS011;9453;50.294;18.644;2022-12-18T10:14:52;47.23;;;14.83;;
18647;SDS011;9453;50.294;18.644;2022-12-18T10:17:25;49.53;;;15.50;;
18647;SDS011;9453;50.294;18.644;2022-12-18T10:19:58;45.03;;;14.30;;
18647;SDS011;9453;50.294;18.644;2022-12-18T10:22:34;44.27;;;14.37;;
18647;SDS011;9453;50.294;18.644;2022-12-18T10:25:14;45.40;;;15.13;;
18647;SDS011;9453;50.294;18.644;2022-12-18T10:27:45;40.07;;;13.37;;
18647;SDS011;9453;50.294;18.644;2022-12-18T10:30:14;40.10;;;13.33;;
18647;SDS011;9453;50.294;18.644;2022-12-18T10:32:43;43.13;;;14.07;;
18647;SDS011;9453;50.294;18.644;2022-12-18T10:35:11;43.00;;;12.77;;
18647;SDS011;9453;50.294;18.644;2022-12-18T10:38:06;36.63;;;13.10;;
18647;SDS011;9453;50.294;18.644;2022-12-18T10:40:48;38.87;;;13.97;;
18647;SDS011;9453;50.294;18.644;2022-12-18T10:43:19;39.50;;;13.53;;
18647;SDS011;9453;50.294;18.644;2022-12-18T10:45:58;47.23;;;14.17;;
18647;SDS011;9453;50.294;18.644;2022-12-18T10:48:31;48.60;;;15.43;;
18647;SDS011;9453;50.294;18.644;2022-12-18T10:51:01;49.97;;;15.17;;
18647;SDS011;9453;50.294;18.644;2022-12-18T10:53:31;54.70;;;17.90;;
18647;SDS011;9453;50.294;18.644;2022-12-18T10:56:00;56.00;;;19.63;;
18647;SDS011;9453;50.294;18.644;2022-12-18T10:58:31;51.87;;;18.80;;
18647;SDS011;9453;50.294;18.644;2022-12-18T11:01:03;53.08;;;19.10;;
18647;SDS011;9453;50.294;18.644;2022-12-18T11:03:33;42.70;;;15.40;;
18647;SDS011;9453;50.294;18.644;2022-12-18T11:06:04;60.72;;;21.33;;
18647;SDS011;9453;50.294;18.644;2022-12-18T11:08:34;56.20;;;17.87;;
18647;SDS011;9453;50.294;18.644;2022-12-18T11:11:02;48.27;;;17.10;;
18647;SDS011;9453;50.294;18.644;2022-12-18T11:13:33;46.73;;;16.37;;
18647;SDS011;9453;50.294;18.644;2022-12-18T11:16:00;46.83;;;16.63;;
18647;SDS011;9453;50.294;18.644;2022-12-18T11:18:28;49.40;;;16.03;;
18647;SDS011;9453;50.294;18.644;2022-12-18T11:20:58;50.13;;;16.60;;
18647;SDS011;9453;50.294;18.644;2022-12-18T11:23:31;52.97;;;15.97;;
18647;SDS011;9453;50.294;18.644;2022-12-18T11:26:01;46.13;;;16.73;;
18647;SDS011;9453;50.294;18.644;2022-12-18T11:28:34;56.87;;;18.23;;
18647;SDS011;9453;50.294;18.644;2022-12-18T11:31:11;64.97;;;22.47;;
18647;SDS011;9453;50.294;18.644;2022-12-18T11:33:54;53.67;;;18.87;;
18647;SDS011;9453;50.294;18.644;2022-12-18T11:36:28;55.57;;;19.00;;
18647;SDS011;9453;50.294;18.644;2022-12-18T11:38:59;45.83;;;17.03;;
18647;SDS011;9453;50.294;18.644;2022-12-18T11:41:39;55.47;;;18.60;;
18647;SDS011;9453;50.294;18.644;2022-12-18T11:44:32;52.23;;;18.03;;
18647;SDS011;9453;50.294;18.644;2022-12-18T11:47:09;51.33;;;16.70;;
18647;SDS011;9453;50.294;18.644;2022-12-18T11:49:41;46.27;;;17.33;;
18647;SDS011;9453;50.294;18.644;2022-12-18T11:52:09;59.20;;;17.87;;
18647;SDS011;9453;50.294;18.644;2022-12-18T11:54:44;53.30;;;17.37;;
18647;SDS011;9453;50.294;18.644;2022-12-18T11:57:15;53.63;;;17.93;;
18647;SDS011;9453;50.294;18.644;2022-12-18T11:59:55;47.73;;;17.03;;
18647;SDS011;9453;50.294;18.644;2022-12-18T12:02:37;54.77;;;17.07;;
18647;SDS011;9453;50.294;18.644;2022-12-18T12:05:25;57.97;;;18.77;;
18647;SDS011;9453;50.294;18.644;2022-12-18T12:08:06;59.70;;;19.37;;
18647;SDS011;9453;50.294;18.644;2022-12-18T12:10:42;57.67;;;17.90;;
18647;SDS011;9453;50.294;18.644;2022-12-18T12:13:23;52.93;;;17.17;;
18647;SDS011;9453;50.294;18.644;2022-12-18T12:16:03;64.27;;;19.67;;
18647;SDS011;9453;50.294;18.644;2022-12-18T12:18:43;64.43;;;20.37;;
18647;SDS011;9453;50.294;18.644;2022-12-18T12:21:21;59.33;;;19.23;;
18647;SDS011;9453;50.294;18.644;2022-12-18T12:23:56;68.73;;;20.43;;
18647;SDS011;9453;50.294;18.644;2022-12-18T12:26:31;76.87;;;21.83;;
18647;SDS011;9453;50.294;18.644;2022-12-18T12:32:03;67.30;;;19.80;;
18647;SDS011;9453;50.294;18.644;2022-12-18T12:34:43;55.10;;;18.87;;
18647;SDS011;9453;50.294;18.644;2022-12-18T12:37:21;63.73;;;21.07;;
18647;SDS011;9453;50.294;18.644;2022-12-18T12:39:57;49.23;;;17.67;;
18647;SDS011;9453;50.294;18.644;2022-12-18T12:42:29;60.87;;;20.00;;
18647;SDS011;9453;50.294;18.644;2022-12-18T12:45:18;61.70;;;20.10;;
18647;SDS011;9453;50.294;18.644;2022-12-18T12:47:50;59.00;;;19.43;;
18647;SDS011;9453;50.294;18.644;2022-12-18T12:50:19;56.87;;;19.10;;
18647;SDS011;9453;50.294;18.644;2022-12-18T12:52:49;67.17;;;20.90;;
18647;SDS011;9453;50.294;18.644;2022-12-18T12:55:19;77.47;;;23.17;;
18647;SDS011;9453;50.294;18.644;2022-12-18T12:57:50;73.90;;;23.27;;
18647;SDS011;9453;50.294;18.644;2022-12-18T13:00:24;67.97;;;21.17;;
18647;SDS011;9453;50.294;18.644;2022-12-18T13:03:01;65.17;;;21.90;;
18647;SDS011;9453;50.294;18.644;2022-12-18T13:05:38;70.73;;;20.90;;
18647;SDS011;9453;50.294;18.644;2022-12-18T13:08:10;64.00;;;21.77;;
18647;SDS011;9453;50.294;18.644;2022-12-18T13:10:47;61.30;;;21.03;;
18647;SDS011;9453;50.294;18.644;2022-12-18T13:13:15;71.43;;;21.47;;
18647;SDS011;9453;50.294;18.644;2022-12-18T13:15:42;71.43;;;23.30;;
18647;SDS011;9453;50.294;18.644;2022-12-18T13:18:13;67.30;;;22.07;;
18647;SDS011;9453;50.294;18.644;2022-12-18T13:20:43;74.90;;;23.37;;
18647;SDS011;9453;50.294;18.644;2022-12-18T13:23:28;65.43;;;20.50;;
18647;SDS011;9453;50.294;18.644;2022-12-18T13:25:57;78.57;;;23.50;;
18647;SDS011;9453;50.294;18.644;2022-12-18T13:43:24;60.07;;;20.50;;
18647;SDS011;9453;50.294;18.644;2022-12-18T13:45:59;70.93;;;21.57;;
18647;SDS011;9453;50.294;18.644;2022-12-18T13:48:41;60.30;;;18.63;;
18647;SDS011;9453;50.294;18.644;2022-12-18T13:51:19;58.77;;;19.33;;
18647;SDS011;9453;50.294;18.644;2022-12-18T13:53:48;58.93;;;18.87;;
18647;SDS011;9453;50.294;18.644;2022-12-18T13:56:18;73.17;;;24.07;;
18647;SDS011;9453;50.294;18.644;2022-12-18T13:59:03;60.27;;;21.70;;
18647;SDS011;9453;50.294;18.644;2022-12-18T14:01:48;65.23;;;21.53;;
18647;SDS011;9453;50.294;18.644;2022-12-18T14:04:19;71.30;;;23.60;;
18647;SDS011;9453;50.294;18.644;2022-12-18T14:06:51;90.73;;;28.17;;
18647;SDS011;9453;50.294;18.644;2022-12-18T14:09:22;71.57;;;24.10;;
18647;SDS011;9453;50.294;18.644;2022-12-18T14:11:51;86.23;;;30.80;;
18647;SDS011;9453;50.294;18.644;2022-12-18T14:14:40;76.30;;;25.30;;
18647;SDS011;9453;50.294;18.644;2022-12-18T14:17:09;82.97;;;26.10;;
18647;SDS011;9453;50.294;18.644;2022-12-18T14:19:40;69.10;;;23.77;;
18647;SDS011;9453;50.294;18.644;2022-12-18T14:22:13;83.07;;;27.20;;
18647;SDS011;9453;50.294;18.644;2022-12-18T14:24:42;93.63;;;29.33;;
18647;SDS011;9453;50.294;18.644;2022-12-18T14:27:13;91.67;;;29.67;;
18647;SDS011;9453;50.294;18.644;2022-12-18T14:29:48;78.10;;;27.47;;
18647;SDS011;9453;50.294;18.644;2022-12-18T14:32:16;80.77;;;27.63;;
18647;SDS011;9453;50.294;18.644;2022-12-18T14:34:44;91.67;;;30.07;;
18647;SDS011;9453;50.294;18.644;2022-12-18T14:37:14;99.77;;;33.73;;
18647;SDS011;9453;50.294;18.644;2022-12-18T14:39:55;121.27;;;37.83;;
18647;SDS011;9453;50.294;18.644;2022-12-18T14:42:24;108.70;;;37.33;;
18647;SDS011;9453;50.294;18.644;2022-12-18T14:47:53;114.13;;;38.80;;
18647;SDS011;9453;50.294;18.644;2022-12-18T14:50:20;111.83;;;38.27;;
18647;SDS011;9453;50.294;18.644;2022-12-18T14:52:49;97.83;;;33.00;;
18647;SDS011;9453;50.294;18.644;2022-12-18T14:55:16;93.13;;;32.03;;
18647;SDS011;9453;50.294;18.644;2022-12-18T14:57:44;103.20;;;33.13;;
18647;SDS011;9453;50.294;18.644;2022-12-18T15:00:15;95.30;;;29.77;;
18647;SDS011;9453;50.294;18.644;2022-12-18T15:02:45;91.60;;;30.23;;
18647;SDS011;9453;50.294;18.644;2022-12-18T15:05:16;103.87;;;33.10;;
18647;SDS011;9453;50.294;18.644;2022-12-18T15:07:45;91.47;;;30.50;;
18647;SDS011;9453;50.294;18.644;2022-12-18T15:10:16;97.17;;;32.77;;
18647;SDS011;9453;50.294;18.644;2022-12-18T15:12:45;83.70;;;28.87;;
18647;SDS011;9453;50.294;18.644;2022-12-18T15:18:13;84.50;;;26.07;;
18647;SDS011;9453;50.294;18.644;2022-12-18T15:20:43;96.63;;;28.77;;
18647;SDS011;9453;50.294;18.644;2022-12-18T15:23:14;96.90;;;29.13;;
18647;SDS011;9453;50.294;18.644;2022-12-18T15:25:44;88.57;;;27.43;;
18647;SDS011;9453;50.294;18.644;2022-12-18T15:28:17;98.27;;;30.37;;
18647;SDS011;9453;50.294;18.644;2022-12-18T15:30:58;85.53;;;28.63;;
18647;SDS011;9453;50.294;18.644;2022-12-18T15:33:30;105.50;;;29.77;;
18647;SDS011;9453;50.294;18.644;2022-12-18T15:35:58;104.37;;;33.67;;
18647;SDS011;9453;50.294;18.644;2022-12-18T15:38:26;117.57;;;35.77;;
18647;SDS011;9453;50.294;18.644;2022-12-18T15:40:54;98.77;;;32.57;;
18647;SDS011;9453;50.294;18.644;2022-12-18T15:43:22;113.20;;;35.73;;
18647;SDS011;9453;50.294;18.644;2022-12-18T15:46:02;114.70;;;35.00;;
18647;SDS011;9453;50.294;18.644;2022-12-18T15:48:32;117.37;;;37.97;;
18647;SDS011;9453;50.294;18.644;2022-12-18T15:51:00;133.57;;;40.17;;
18647;SDS011;9453;50.294;18.644;2022-12-18T15:53:31;117.77;;;38.33;;
18647;SDS011;9453;50.294;18.644;2022-12-18T15:56:00;98.17;;;34.03;;
18647;SDS011;9453;50.294;18.644;2022-12-18T15:58:45;118.23;;;40.20;;
18647;SDS011;9453;50.294;18.644;2022-12-18T16:01:11;105.07;;;37.20;;
18647;SDS011;9453;50.294;18.644;2022-12-18T16:03:39;120.70;;;38.30;;
18647;SDS011;9453;50.294;18.644;2022-12-18T16:06:06;102.77;;;34.70;;
18647;SDS011;9453;50.294;18.644;2022-12-18T16:08:34;115.30;;;36.50;;
18647;SDS011;9453;50.294;18.644;2022-12-18T16:11:03;118.30;;;38.97;;
18647;SDS011;9453;50.294;18.644;2022-12-18T16:13:31;92.97;;;31.73;;
18647;SDS011;9453;50.294;18.644;2022-12-18T16:15:58;95.90;;;29.93;;
18647;SDS011;9453;50.294;18.644;2022-12-18T16:18:25;88.70;;;29.70;;
18647;SDS011;9453;50.294;18.644;2022-12-18T16:20:52;103.67;;;34.10;;
18647;SDS011;9453;50.294;18.644;2022-12-18T16:23:19;92.37;;;30.83;;
18647;SDS011;9453;50.294;18.644;2022-12-18T16:25:46;88.63;;;28.97;;
18647;SDS011;9453;50.294;18.644;2022-12-18T16:28:14;99.23;;;30.57;;
18647;SDS011;9453;50.294;18.644;2022-12-18T16:30:41;130.63;;;41.90;;
18647;SDS011;9453;50.294;18.644;2022-12-18T16:33:08;115.67;;;38.90;;
18647;SDS011;9453;50.294;18.644;2022-12-18T16:35:36;100.97;;;33.90;;
18647;SDS011;9453;50.294;18.644;2022-12-18T16:38:03;80.53;;;28.57;;
18647;SDS011;9453;50.294;18.644;2022-12-18T16:40:30;82.70;;;30.23;;
18647;SDS011;9453;50.294;18.644;2022-12-18T16:42:58;98.03;;;33.10;;
18647;SDS011;9453;50.294;18.644;2022-12-18T16:45:26;103.07;;;33.67;;
18647;SDS011;9453;50.294;18.644;2022-12-18T16:47:58;110.00;;;37.67;;
18647;SDS011;9453;50.294;18.644;2022-12-18T16:50:24;120.30;;;39.30;;
18647;SDS011;9453;50.294;18.644;2022-12-18T16:52:51;107.57;;;37.63;;
18647;SDS011;9453;50.294;18.644;2022-12-18T16:55:18;121.50;;;41.90;;
18647;SDS011;9453;50.294;18.644;2022-12-18T16:57:46;101.27;;;35.57;;
18647;SDS011;9453;50.294;18.644;2022-12-18T17:00:13;125.63;;;39.93;;
18647;SDS011;9453;50.294;18.644;2022-12-18T17:02:43;142.63;;;47.67;;
18647;SDS011;9453;50.294;18.644;2022-12-18T17:05:10;138.93;;;46.07;;
18647;SDS011;9453;50.294;18.644;2022-12-18T17:07:37;175.40;;;51.40;;
18647;SDS011;9453;50.294;18.644;2022-12-18T17:10:04;159.37;;;51.17;;
18647;SDS011;9453;50.294;18.644;2022-12-18T17:12:32;157.13;;;49.60;;
18647;SDS011;9453;50.294;18.644;2022-12-18T17:14:59;168.40;;;50.63;;
18647;SDS011;9453;50.294;18.644;2022-12-18T17:17:26;179.23;;;54.83;;
18647;SDS011;9453;50.294;18.644;2022-12-18T17:19:54;153.27;;;48.70;;
18647;SDS011;9453;50.294;18.644;2022-12-18T17:22:21;150.70;;;45.03;;
18647;SDS011;9453;50.294;18.644;2022-12-18T17:24:48;172.90;;;48.80;;
18647;SDS011;9453;50.294;18.644;2022-12-18T17:27:15;139.13;;;44.43;;
18647;SDS011;9453;50.294;18.644;2022-12-18T17:29:42;131.20;;;42.03;;
18647;SDS011;9453;50.294;18.644;2022-12-18T17:32:09;123.10;;;42.23;;
18647;SDS011;9453;50.294;18.644;2022-12-18T17:34:36;107.80;;;38.27;;
18647;SDS011;9453;50.294;18.644;2022-12-18T17:37:05;128.50;;;40.90;;
18647;SDS011;9453;50.294;18.644;2022-12-18T17:39:32;117.83;;;39.80;;
18647;SDS011;9453;50.294;18.644;2022-12-18T17:41:59;121.53;;;42.00;;
18647;SDS011;9453;50.294;18.644;2022-12-18T17:44:26;106.60;;;36.23;;
18647;SDS011;9453;50.294;18.644;2022-12-18T17:46:53;126.60;;;41.20;;
18647;SDS011;9453;50.294;18.644;2022-12-18T17:49:20;141.33;;;44.40;;
18647;SDS011;9453;50.294;18.644;2022-12-18T17:51:47;122.53;;;41.63;;
18647;SDS011;9453;50.294;18.644;2022-12-18T17:54:15;126.60;;;42.37;;
18647;SDS011;9453;50.294;18.644;2022-12-18T17:56:42;119.87;;;40.47;;
18647;SDS011;9453;50.294;18.644;2022-12-18T17:59:10;118.57;;;38.80;;
18647;SDS011;9453;50.294;18.644;2022-12-18T18:01:37;138.63;;;44.83;;
18647;SDS011;9453;50.294;18.644;2022-12-18T18:04:04;143.87;;;42.07;;
18647;SDS011;9453;50.294;18.644;2022-12-18T18:06:31;153.07;;;44.27;;
18647;SDS011;9453;50.294;18.644;2022-12-18T18:08:58;145.10;;;40.97;;
18647;SDS011;9453;50.294;18.644;2022-12-18T18:11:26;115.33;;;37.07;;
18647;SDS011;9453;50.294;18.644;2022-12-18T18:14:11;127.80;;;37.53;;
18647;SDS011;9453;50.294;18.644;2022-12-18T18:16:42;104.00;;;33.10;;
18647;SDS011;9453;50.294;18.644;2022-12-18T18:19:12;103.83;;;33.30;;
18647;SDS011;9453;50.294;18.644;2022-12-18T18:21:41;106.70;;;32.07;;
18647;SDS011;9453;50.294;18.644;2022-12-18T18:24:10;108.67;;;31.70;;
18647;SDS011;9453;50.294;18.644;2022-12-18T18:26:40;109.13;;;32.17;;
18647;SDS011;9453;50.294;18.644;2022-12-18T18:29:07;102.30;;;32.93;;
18647;SDS011;9453;50.294;18.644;2022-12-18T18:31:37;76.40;;;28.17;;
18647;SDS011;9453;50.294;18.644;2022-12-18T18:34:04;83.43;;;27.67;;
18647;SDS011;9453;50.294;18.644;2022-12-18T18:36:31;87.43;;;28.73;;
18647;SDS011;9453;50.294;18.644;2022-12-18T18:38:58;84.53;;;28.53;;
18647;SDS011;9453;50.294;18.644;2022-12-18T18:41:25;114.23;;;33.97;;
18647;SDS011;9453;50.294;18.644;2022-12-18T18:43:55;89.37;;;28.67;;
18647;SDS011;9453;50.294;18.644;2022-12-18T18:46:23;83.03;;;28.07;;
18647;SDS011;9453;50.294;18.644;2022-12-18T18:48:51;84.67;;;26.00;;
18647;SDS011;9453;50.294;18.644;2022-12-18T18:51:18;87.90;;;27.60;;
18647;SDS011;9453;50.294;18.644;2022-12-18T18:53:46;80.93;;;26.83;;
18647;SDS011;9453;50.294;18.644;2022-12-18T18:56:14;90.67;;;26.30;;
18647;SDS011;9453;50.294;18.644;2022-12-18T18:58:43;101.27;;;30.33;;
18647;SDS011;9453;50.294;18.644;2022-12-18T19:01:12;74.73;;;25.17;;
18647;SDS011;9453;50.294;18.644;2022-12-18T19:03:41;88.30;;;29.20;;
18647;SDS011;9453;50.294;18.644;2022-12-18T19:06:10;78.27;;;25.57;;
18647;SDS011;9453;50.294;18.644;2022-12-18T19:08:39;107.22;;;30.05;;
18647;SDS011;9453;50.294;18.644;2022-12-18T19:11:07;76.67;;;24.63;;
18647;SDS011;9453;50.294;18.644;2022-12-18T19:13:56;78.77;;;26.37;;
18647;SDS011;9453;50.294;18.644;2022-12-18T19:16:24;95.63;;;29.27;;
18647;SDS011;9453;50.294;18.644;2022-12-18T19:18:52;85.27;;;29.63;;
18647;SDS011;9453;50.294;18.644;2022-12-18T19:21:20;100.20;;;30.80;;
18647;SDS011;9453;50.294;18.644;2022-12-18T19:23:48;112.83;;;37.87;;
18647;SDS011;9453;50.294;18.644;2022-12-18T19:26:15;113.20;;;35.60;;
18647;SDS011;9453;50.294;18.644;2022-12-18T19:28:43;111.00;;;34.37;;
18647;SDS011;9453;50.294;18.644;2022-12-18T19:31:12;105.90;;;32.83;;
18647;SDS011;9453;50.294;18.644;2022-12-18T19:33:43;94.63;;;31.47;;
18647;SDS011;9453;50.294;18.644;2022-12-18T19:36:13;102.80;;;32.57;;
18647;SDS011;9453;50.294;18.644;2022-12-18T19:38:43;94.83;;;31.60;;
18647;SDS011;9453;50.294;18.644;2022-12-18T19:41:11;117.40;;;35.80;;
18647;SDS011;9453;50.294;18.644;2022-12-18T19:43:38;111.30;;;33.93;;
18647;SDS011;9453;50.294;18.644;2022-12-18T19:46:06;87.13;;;28.60;;
18647;SDS011;9453;50.294;18.644;2022-12-18T19:48:36;83.37;;;27.53;;
18647;SDS011;9453;50.294;18.644;2022-12-18T19:51:05;76.17;;;26.77;;
18647;SDS011;9453;50.294;18.644;2022-12-18T19:53:33;95.43;;;29.07;;
18647;SDS011;9453;50.294;18.644;2022-12-18T19:56:03;82.70;;;27.90;;
18647;SDS011;9453;50.294;18.644;2022-12-18T19:58:31;87.27;;;28.10;;